Main page
Satellite images Climate Cyclones Lightning AirportsFAQ Languages Contact Newsletter About
Weather : Europe Africa North America South America Asia Australia-Oceania Others

bangkok-th, Bangkok, Don Mueang International Airport

48456

latitude: , longitude: Thailand, elevation: 13-54-45N m


METAR: VTBD 230830Z 08005KT 040V120 9999 TS FEW020CB SCT030 32/24 Q1009 TEMPO FM0835 TL0900 19015G25KT 5000 TSRA